createdAt,value
2019-05-01T00:00:37.794Z,7.50
2019-05-01T00:01:37.814Z,7.41
2019-05-01T00:02:37.787Z,7.35
2019-05-01T00:03:37.777Z,7.31
2019-05-01T00:04:37.779Z,7.12
2019-05-01T00:05:37.773Z,7.09
2019-05-01T00:06:37.801Z,7.09
2019-05-01T00:07:37.773Z,6.98
2019-05-01T00:08:37.765Z,6.97
2019-05-01T00:09:37.799Z,6.95
2019-05-01T00:10:37.762Z,6.77
2019-05-01T00:11:37.757Z,6.76
2019-05-01T00:12:37.778Z,6.61
2019-05-01T00:13:37.749Z,6.54
2019-05-01T00:14:37.746Z,6.63
2019-05-01T00:15:37.742Z,6.53
2019-05-01T00:16:37.734Z,6.54
2019-05-01T00:17:37.769Z,6.54
2019-05-01T00:18:37.734Z,6.59
2019-05-01T00:19:37.725Z,6.56
2019-05-01T00:20:37.728Z,6.54
2019-05-01T00:21:37.725Z,6.58
2019-05-01T00:22:37.746Z,6.58
2019-05-01T00:23:37.718Z,6.47
2019-05-01T00:24:37.715Z,6.46
2019-05-01T00:25:37.712Z,6.30
2019-05-01T00:26:37.706Z,6.14
2019-05-01T00:27:37.726Z,6.13
2019-05-01T00:28:37.709Z,6.14
2019-05-01T00:29:37.694Z,6.14
2019-05-01T00:30:37.719Z,6.18
2019-05-01T00:31:37.687Z,6.22
2019-05-01T00:32:37.691Z,6.30
2019-05-01T00:33:37.709Z,6.36
2019-05-01T00:34:37.679Z,6.36
2019-05-01T00:35:37.675Z,6.40
2019-05-01T00:36:37.671Z,6.30
2019-05-01T00:37:37.671Z,6.38
2019-05-01T00:38:37.691Z,6.35
2019-05-01T00:39:37.659Z,6.38
2019-05-01T00:40:37.659Z,6.38
2019-05-01T00:41:37.651Z,6.28
2019-05-01T00:42:37.648Z,6.11
2019-05-01T00:43:37.672Z,6.18
2019-05-01T00:44:37.648Z,6.14
2019-05-01T00:45:37.639Z,6.18
2019-05-01T00:46:37.636Z,6.11
2019-05-01T00:47:37.632Z,6.14
2019-05-01T00:48:37.656Z,6.19
2019-05-01T00:49:37.624Z,6.26
2019-05-01T00:50:37.618Z,6.36
2019-05-01T00:51:37.624Z,6.41
2019-05-01T00:52:37.612Z,6.50
2019-05-01T00:53:37.636Z,6.53
2019-05-01T00:54:37.605Z,6.47
2019-05-01T00:55:37.600Z,6.56
2019-05-01T00:56:37.602Z,6.58
2019-05-01T00:57:37.597Z,6.77
2019-05-01T00:58:37.617Z,6.95
2019-05-01T00:59:37.589Z,7.09
2019-05-01T01:00:43.111Z,7.19
2019-05-01T01:01:37.585Z,7.15
2019-05-01T01:02:37.577Z,7.15
2019-05-01T01:03:37.602Z,7.09
2019-05-01T01:04:37.569Z,7.08
2019-05-01T01:05:37.598Z,7.09
2019-05-01T01:06:37.566Z,7.08
2019-05-01T01:07:37.557Z,7.07
2019-05-01T01:08:37.556Z,7.09
2019-05-01T01:09:37.555Z,7.04
2019-05-01T01:10:37.577Z,6.97
2019-05-01T01:11:37.546Z,6.97
2019-05-01T01:12:37.553Z,6.76
2019-05-01T01:13:37.540Z,6.72
2019-05-01T01:14:37.534Z,6.76
2019-05-01T01:15:37.564Z,6.68
2019-05-01T01:16:37.534Z,6.61
2019-05-01T01:17:37.525Z,6.53
2019-05-01T01:18:37.522Z,6.58
2019-05-01T01:19:37.520Z,6.66
2019-05-01T01:20:37.514Z,6.72
2019-05-01T01:21:37.538Z,6.84
2019-05-01T01:22:37.506Z,6.89
2019-05-01T01:23:37.500Z,6.77
2019-05-01T01:24:37.502Z,6.79
2019-05-01T01:25:37.501Z,6.86
2019-05-01T01:26:37.519Z,6.89
2019-05-01T01:27:37.491Z,6.89
2019-05-01T01:28:37.489Z,6.87
2019-05-01T01:29:37.479Z,6.91
2019-05-01T01:30:37.485Z,7.02
2019-05-01T01:31:37.503Z,6.98
2019-05-01T01:32:37.472Z,6.97
2019-05-01T01:33:37.467Z,6.99
2019-05-01T01:34:37.465Z,6.91
2019-05-01T01:35:37.459Z,7.01
2019-05-01T01:36:37.481Z,7.07
2019-05-01T01:37:37.454Z,7.07
2019-05-01T01:38:37.452Z,7.19
2019-05-01T01:39:37.444Z,7.15
2019-05-01T01:40:37.443Z,7.13
2019-05-01T01:41:37.467Z,7.15
2019-05-01T01:42:37.440Z,7.16
2019-05-01T01:43:37.441Z,7.17
2019-05-01T01:44:37.429Z,7.20
2019-05-01T01:45:37.424Z,7.19
2019-05-01T01:46:37.449Z,7.23
2019-05-01T01:47:37.423Z,7.26
2019-05-01T01:48:37.416Z,7.17
2019-05-01T01:49:37.412Z,7.19
2019-05-01T01:50:37.409Z,7.13
2019-05-01T01:51:37.436Z,7.07
2019-05-01T01:52:37.403Z,7.08
2019-05-01T01:53:37.396Z,7.08
2019-05-01T01:54:37.404Z,7.04
2019-05-01T01:55:37.396Z,6.99
2019-05-01T01:56:37.417Z,6.91
2019-05-01T01:57:37.384Z,6.81
2019-05-01T01:58:37.376Z,6.76
2019-05-01T01:59:37.373Z,6.86
2019-05-01T02:00:37.377Z,6.95
2019-05-01T02:01:37.395Z,6.81
2019-05-01T02:02:37.368Z,6.77
2019-05-01T02:03:37.365Z,6.73
2019-05-01T02:04:37.363Z,6.72
2019-05-01T02:05:37.357Z,6.76
2019-05-01T02:06:37.390Z,6.81
2019-05-01T02:07:37.349Z,6.89
2019-05-01T02:08:37.378Z,6.76
2019-05-01T02:09:37.342Z,6.66
2019-05-01T02:10:43.100Z,6.54
2019-05-01T02:11:37.334Z,6.59
2019-05-01T02:12:37.358Z,6.56
2019-05-01T02:13:37.332Z,6.56
2019-05-01T02:14:37.326Z,6.58
2019-05-01T02:15:37.322Z,6.58
2019-05-01T02:16:37.318Z,6.43
2019-05-01T02:17:37.339Z,6.51
2019-05-01T02:18:37.310Z,6.54
2019-05-01T02:19:37.303Z,6.69
2019-05-01T02:20:37.304Z,6.73
2019-05-01T02:21:37.303Z,7.04
2019-05-01T02:22:37.323Z,7.22
2019-05-01T02:23:37.297Z,7.29
2019-05-01T02:24:37.384Z,7.42
2019-05-01T02:25:37.286Z,7.38
2019-05-01T02:26:37.282Z,7.40
2019-05-01T02:27:37.308Z,7.31
2019-05-01T02:28:37.279Z,7.50
2019-05-01T02:29:37.273Z,7.50
2019-05-01T02:30:37.271Z,7.49
2019-05-01T02:31:37.271Z,7.41
2019-05-01T02:32:37.291Z,7.45
2019-05-01T02:33:37.258Z,7.41
2019-05-01T02:34:37.257Z,7.40
2019-05-01T02:35:37.249Z,7.42
2019-05-01T02:36:37.256Z,7.31
2019-05-01T02:37:37.271Z,7.23
2019-05-01T02:38:37.241Z,7.13
2019-05-01T02:39:37.239Z,6.98
2019-05-01T02:40:37.236Z,6.94
2019-05-01T02:41:41.121Z,6.79
2019-05-01T02:42:37.256Z,6.76
2019-05-01T02:43:37.223Z,6.87
2019-05-01T02:44:37.221Z,6.86
2019-05-01T02:45:37.217Z,6.95
2019-05-01T02:46:37.214Z,6.99
2019-05-01T02:47:37.239Z,7.16
2019-05-01T02:48:37.205Z,7.15
2019-05-01T02:49:37.204Z,7.17
2019-05-01T02:50:37.206Z,7.26
2019-05-01T02:51:37.200Z,7.38
2019-05-01T02:52:37.246Z,7.40
2019-05-01T02:53:37.190Z,7.34
2019-05-01T02:54:37.193Z,7.41
2019-05-01T02:55:37.202Z,7.53
2019-05-01T02:56:37.185Z,7.47
2019-05-01T02:57:37.291Z,7.45
2019-05-01T02:58:37.180Z,7.62
2019-05-01T02:59:37.169Z,7.66
2019-05-01T03:00:37.176Z,7.71
2019-05-01T03:01:46.655Z,7.79
2019-05-01T03:02:37.193Z,7.85
2019-05-01T03:03:37.157Z,7.90
2019-05-01T03:04:37.165Z,7.93
2019-05-01T03:05:37.151Z,7.82
2019-05-01T03:06:37.151Z,7.93
2019-05-01T03:07:37.154Z,7.92
2019-05-01T03:08:37.177Z,7.93
2019-05-01T03:09:37.150Z,7.85
2019-05-01T03:10:37.134Z,7.75
2019-05-01T03:11:37.133Z,7.69
2019-05-01T03:12:37.127Z,7.69
2019-05-01T03:13:37.154Z,7.62
2019-05-01T03:14:37.121Z,7.52
2019-05-01T03:15:37.120Z,7.52
2019-05-01T03:16:37.116Z,7.34
2019-05-01T03:17:37.111Z,7.37
2019-05-01T03:18:37.141Z,7.35
2019-05-01T03:19:37.105Z,7.31
2019-05-01T03:20:37.110Z,7.35
2019-05-01T03:21:37.105Z,7.20
2019-05-01T03:22:37.096Z,7.26
2019-05-01T03:23:37.122Z,7.24
2019-05-01T03:24:37.095Z,7.29
2019-05-01T03:25:37.086Z,7.42
2019-05-01T03:26:37.089Z,7.31
2019-05-01T03:27:37.083Z,7.37
2019-05-01T03:28:37.104Z,7.32
2019-05-01T03:29:37.076Z,7.40
2019-05-01T03:30:37.081Z,7.50
2019-05-01T03:31:37.072Z,7.50
2019-05-01T03:32:37.067Z,7.44
2019-05-01T03:33:37.148Z,7.47
2019-05-01T03:34:37.063Z,7.49
2019-05-01T03:35:37.061Z,7.56
2019-05-01T03:36:37.068Z,7.60
2019-05-01T03:37:37.051Z,7.63
2019-05-01T03:38:37.077Z,7.63
2019-05-01T03:39:37.057Z,7.66
2019-05-01T03:40:37.052Z,7.75
2019-05-01T03:41:37.040Z,7.84
2019-05-01T03:42:37.040Z,7.93
2019-05-01T03:43:37.062Z,8.02
2019-05-01T03:44:37.038Z,7.94
2019-05-01T03:45:37.034Z,7.94
2019-05-01T03:46:37.025Z,8.11
2019-05-01T03:47:37.026Z,8.15
2019-05-01T03:48:37.052Z,8.04
2019-05-01T03:49:37.021Z,8.07
2019-05-01T03:50:37.014Z,7.96
2019-05-01T03:51:37.011Z,7.93
2019-05-01T03:52:37.008Z,7.93
2019-05-01T03:53:37.035Z,7.97
2019-05-01T03:54:37.000Z,8.07
2019-05-01T03:55:37.001Z,8.08
2019-05-01T03:56:36.996Z,8.17
2019-05-01T03:57:36.996Z,8.44
2019-05-01T03:58:37.017Z,8.45
2019-05-01T03:59:36.985Z,8.51
2019-05-01T04:00:36.985Z,8.54
2019-05-01T04:01:36.981Z,8.54
2019-05-01T04:02:36.977Z,8.60
2019-05-01T04:03:37.007Z,8.63
2019-05-01T04:04:36.978Z,8.62
2019-05-01T04:05:36.969Z,8.66
2019-05-01T04:06:36.965Z,8.60
2019-05-01T04:07:36.970Z,8.42
2019-05-01T04:08:37.002Z,8.22
2019-05-01T04:09:36.991Z,8.11
2019-05-01T04:10:36.954Z,8.10
2019-05-01T04:11:36.952Z,7.94
2019-05-01T04:12:36.949Z,7.90
2019-05-01T04:13:36.942Z,7.96
2019-05-01T04:14:39.589Z,7.90
2019-05-01T04:15:36.943Z,7.82
2019-05-01T04:16:36.946Z,7.82
2019-05-01T04:17:36.937Z,7.82
2019-05-01T04:18:36.939Z,7.82
2019-05-01T04:19:36.962Z,7.82
2019-05-01T04:20:36.925Z,7.85
2019-05-01T04:21:36.927Z,7.74
2019-05-01T04:22:36.924Z,7.77
2019-05-01T04:23:36.919Z,7.78
2019-05-01T04:24:36.949Z,7.79
2019-05-01T04:25:36.919Z,7.84
2019-05-01T04:26:36.913Z,7.78
2019-05-01T04:27:36.909Z,7.66
2019-05-01T04:28:36.959Z,7.75
2019-05-01T04:29:36.933Z,7.77
2019-05-01T04:30:36.905Z,7.87
2019-05-01T04:31:36.901Z,7.89
2019-05-01T04:32:51.144Z,7.85
2019-05-01T04:33:36.892Z,7.94
2019-05-01T04:34:36.923Z,7.97
2019-05-01T04:35:36.886Z,7.99
2019-05-01T04:36:36.879Z,7.93
2019-05-01T04:37:36.880Z,8.10
2019-05-01T04:38:36.876Z,8.00
2019-05-01T04:39:36.906Z,8.21
2019-05-01T04:40:36.889Z,8.22
2019-05-01T04:41:36.867Z,8.42
2019-05-01T04:42:36.869Z,8.45
2019-05-01T04:43:36.868Z,8.51
2019-05-01T04:44:36.885Z,8.72
2019-05-01T04:45:36.859Z,8.65
2019-05-01T04:46:36.851Z,8.86
2019-05-01T04:47:36.859Z,8.97
2019-05-01T04:48:36.854Z,8.93
2019-05-01T04:49:36.882Z,9.01
2019-05-01T04:50:36.839Z,9.05
2019-05-01T04:51:36.843Z,9.24
2019-05-01T04:52:36.840Z,9.28
2019-05-01T04:53:36.838Z,9.31
2019-05-01T04:54:36.861Z,9.43
2019-05-01T04:55:36.831Z,9.32
2019-05-01T04:56:36.827Z,9.49
2019-05-01T04:57:36.824Z,9.45
2019-05-01T04:58:36.823Z,9.60
2019-05-01T04:59:36.849Z,9.61
2019-05-01T05:00:36.820Z,9.75
2019-05-01T05:01:36.816Z,9.58
2019-05-01T05:02:36.814Z,9.64
2019-05-01T05:03:36.810Z,9.52
2019-05-01T05:04:36.835Z,9.49
2019-05-01T05:05:36.807Z,9.35
2019-05-01T05:06:36.804Z,9.28
2019-05-01T05:07:36.804Z,9.25
2019-05-01T05:08:36.798Z,9.15
2019-05-01T05:09:36.831Z,9.20
2019-05-01T05:10:36.797Z,9.06
2019-05-01T05:11:36.796Z,8.94
2019-05-01T05:12:36.792Z,8.90
2019-05-01T05:13:36.793Z,8.83
2019-05-01T05:14:36.813Z,8.68
2019-05-01T05:15:36.792Z,8.62
2019-05-01T05:16:36.784Z,8.63
2019-05-01T05:17:36.783Z,8.63
2019-05-01T05:18:36.781Z,8.79
2019-05-01T05:19:36.805Z,8.68
2019-05-01T05:20:36.776Z,8.91
2019-05-01T05:21:36.772Z,8.83
2019-05-01T05:22:36.771Z,8.87
2019-05-01T05:23:36.769Z,8.94
2019-05-01T05:24:36.800Z,8.93
2019-05-01T05:25:36.764Z,9.02
2019-05-01T05:26:36.760Z,9.09
2019-05-01T05:27:36.761Z,9.20
2019-05-01T05:28:36.761Z,9.15
2019-05-01T05:29:36.785Z,9.24
2019-05-01T05:30:36.768Z,9.30
2019-05-01T05:31:36.753Z,9.35
2019-05-01T05:32:36.750Z,9.49
2019-05-01T05:33:36.748Z,9.60
2019-05-01T05:34:36.773Z,9.66
2019-05-01T05:35:36.753Z,9.60
2019-05-01T05:36:36.750Z,9.78
2019-05-01T05:37:36.743Z,9.79
2019-05-01T05:38:36.736Z,9.79
2019-05-01T05:39:36.733Z,9.86
2019-05-01T05:40:36.765Z,9.97
2019-05-01T05:41:36.732Z,9.96
2019-05-01T05:42:36.729Z,9.91
2019-05-01T05:43:36.730Z,9.97
2019-05-01T05:44:36.727Z,10.07
2019-05-01T05:45:36.758Z,10.06
2019-05-01T05:46:36.722Z,10.10
2019-05-01T05:47:36.723Z,9.93
2019-05-01T05:48:36.719Z,10.07
2019-05-01T05:49:36.718Z,10.06
2019-05-01T05:50:36.753Z,9.97
2019-05-01T05:51:36.718Z,9.96
2019-05-01T05:52:36.714Z,9.97
2019-05-01T05:53:36.712Z,9.86
2019-05-01T05:54:36.706Z,9.93
2019-05-01T05:55:36.738Z,10.01
2019-05-01T05:56:36.711Z,10.10
2019-05-01T05:57:36.706Z,10.01
2019-05-01T05:58:36.698Z,10.04
2019-05-01T05:59:36.702Z,10.07
2019-05-01T06:00:36.727Z,10.06
2019-05-01T06:01:36.697Z,9.96
2019-05-01T06:02:36.691Z,9.82
2019-05-01T06:03:36.697Z,9.79
2019-05-01T06:04:36.691Z,9.83
2019-05-01T06:05:36.712Z,9.79
2019-05-01T06:06:36.689Z,9.88
2019-05-01T06:07:36.696Z,10.07
2019-05-01T06:08:36.684Z,10.17
2019-05-01T06:09:36.681Z,10.25
2019-05-01T06:10:36.707Z,10.33
2019-05-01T06:11:36.671Z,10.39
2019-05-01T06:12:37.294Z,10.42
2019-05-01T06:13:36.671Z,10.52
2019-05-01T06:14:36.671Z,10.52
2019-05-01T06:15:41.013Z,10.51
2019-05-01T06:16:36.668Z,10.59
2019-05-01T06:17:36.667Z,10.66
2019-05-01T06:18:39.283Z,10.86
2019-05-01T06:19:36.664Z,10.92
2019-05-01T06:20:37.533Z,11.02
2019-05-01T06:21:36.695Z,11.10
2019-05-01T06:22:40.626Z,11.17
2019-05-01T06:23:36.656Z,11.25
2019-05-01T06:24:40.585Z,11.43
2019-05-01T06:25:36.653Z,11.49
2019-05-01T06:26:37.800Z,11.53
2019-05-01T06:27:36.653Z,11.77
2019-05-01T06:28:36.653Z,12.08
2019-05-01T06:29:37.289Z,12.29
2019-05-01T06:30:36.644Z,12.34
2019-05-01T06:31:36.677Z,12.31
2019-05-01T06:32:36.652Z,12.29
2019-05-01T06:33:44.032Z,12.31
2019-05-01T06:34:36.640Z,12.41
2019-05-01T06:35:38.085Z,12.37
2019-05-01T06:36:36.677Z,12.42
2019-05-01T06:37:36.645Z,12.38
2019-05-01T06:38:37.796Z,12.29
2019-05-01T06:39:36.644Z,12.26
2019-05-01T06:40:36.641Z,12.29
2019-05-01T06:41:42.479Z,12.27
2019-05-01T06:42:36.642Z,12.26
2019-05-01T06:43:36.643Z,12.20
2019-05-01T06:44:39.264Z,12.21
2019-05-01T06:45:36.643Z,12.21
2019-05-01T06:46:36.674Z,12.26
2019-05-01T06:47:38.265Z,12.26
2019-05-01T06:48:36.641Z,12.21
2019-05-01T06:49:36.640Z,12.24
2019-05-01T06:50:37.115Z,12.20
2019-05-01T06:51:36.675Z,12.21
2019-05-01T06:52:36.667Z,12.20
2019-05-01T06:53:39.963Z,12.33
2019-05-01T06:54:36.634Z,12.37
2019-05-01T06:55:36.636Z,12.39
2019-05-01T06:56:36.641Z,12.44
2019-05-01T06:57:38.474Z,12.44
2019-05-01T06:58:36.642Z,12.26
2019-05-01T06:59:37.610Z,12.21
2019-05-01T07:00:39.263Z,12.12
2019-05-01T07:01:36.639Z,12.26
2019-05-01T07:02:36.978Z,12.21
2019-05-01T07:03:40.679Z,12.21
2019-05-01T07:04:37.933Z,12.64
2019-05-01T07:05:36.640Z,13.07
2019-05-01T07:06:36.641Z,13.49
2019-05-01T07:07:36.672Z,13.58
2019-05-01T07:08:39.502Z,13.46
2019-05-01T07:09:36.643Z,13.33
2019-05-01T07:10:43.601Z,13.38
2019-05-01T07:11:36.678Z,13.49
2019-05-01T07:12:36.667Z,13.40
2019-05-01T07:13:40.125Z,13.46
2019-05-01T07:14:36.640Z,13.30
2019-05-01T07:15:36.638Z,13.00
2019-05-01T07:16:38.076Z,12.87
2019-05-01T07:17:36.665Z,12.84
2019-05-01T07:18:36.640Z,12.70
2019-05-01T07:19:40.278Z,12.60
2019-05-01T07:20:36.643Z,12.45
2019-05-01T07:21:36.643Z,12.56
2019-05-01T07:22:37.148Z,12.44
2019-05-01T07:23:36.647Z,12.42
2019-05-01T07:24:36.643Z,12.51
2019-05-01T07:25:39.456Z,12.37
2019-05-01T07:26:36.643Z,12.37
2019-05-01T07:27:36.676Z,12.44
2019-05-01T07:28:36.643Z,12.51
2019-05-01T07:29:39.834Z,12.42
2019-05-01T07:30:36.644Z,12.37
2019-05-01T07:31:36.646Z,12.29
2019-05-01T07:32:41.226Z,12.24
2019-05-01T07:33:36.643Z,12.12
2019-05-01T07:34:36.648Z,12.02
2019-05-01T07:35:37.854Z,12.12
2019-05-01T07:36:36.648Z,12.19
2019-05-01T07:37:36.671Z,12.08
2019-05-01T07:38:38.288Z,12.04
2019-05-01T07:39:36.649Z,12.02
2019-05-01T07:40:36.648Z,11.93
2019-05-01T07:41:37.709Z,11.97
2019-05-01T07:42:36.677Z,11.94
2019-05-01T07:43:36.647Z,11.96
2019-05-01T07:44:36.646Z,11.83
2019-05-01T07:45:39.049Z,11.86
2019-05-01T07:46:36.645Z,11.71
2019-05-01T07:47:36.675Z,11.67
2019-05-01T07:48:41.437Z,11.71
2019-05-01T07:49:36.644Z,11.61
2019-05-01T07:50:36.650Z,11.59
2019-05-01T07:51:37.745Z,11.64
2019-05-01T07:52:36.669Z,11.64
2019-05-01T07:53:36.645Z,11.70
2019-05-01T07:54:37.812Z,11.78
2019-05-01T07:55:36.640Z,11.72
2019-05-01T07:56:36.638Z,11.75
2019-05-01T07:57:39.640Z,11.80
2019-05-01T07:58:36.636Z,11.82
2019-05-01T07:59:36.702Z,11.87
2019-05-01T08:00:37.026Z,11.97
2019-05-01T08:01:36.637Z,12.05
2019-05-01T08:02:36.677Z,12.05
2019-05-01T08:03:37.934Z,12.26
2019-05-01T08:04:36.834Z,12.31
2019-05-01T08:05:40.699Z,12.44
2019-05-01T08:06:36.670Z,12.41
2019-05-01T08:07:36.638Z,12.44
2019-05-01T08:08:39.546Z,12.51
2019-05-01T08:09:36.630Z,12.64
2019-05-01T08:10:36.631Z,12.63
2019-05-01T08:11:39.134Z,12.75
2019-05-01T08:12:36.639Z,12.75
2019-05-01T08:13:36.671Z,12.92
2019-05-01T08:14:36.627Z,12.93
2019-05-01T08:15:36.634Z,12.78
2019-05-01T08:16:37.873Z,12.79
2019-05-01T08:17:36.627Z,12.97
2019-05-01T08:18:36.654Z,12.97
2019-05-01T08:19:39.364Z,13.02
2019-05-01T08:20:36.626Z,13.29
2019-05-01T08:21:36.628Z,13.15
2019-05-01T08:22:37.096Z,13.29
2019-05-01T08:23:36.660Z,13.24
2019-05-01T08:24:36.635Z,13.41
2019-05-01T08:25:36.712Z,13.47
2019-05-01T08:26:39.656Z,13.51
2019-05-01T08:27:36.628Z,13.59
2019-05-01T08:28:36.660Z,13.74
2019-05-01T08:29:37.003Z,13.92
2019-05-01T08:30:36.625Z,13.98
2019-05-01T08:31:36.627Z,14.50
2019-05-01T08:32:39.266Z,14.74
2019-05-01T08:33:36.667Z,14.81
2019-05-01T08:34:48.408Z,14.90
2019-05-01T08:35:37.647Z,15.48
2019-05-01T08:36:36.632Z,15.67
2019-05-01T08:37:36.633Z,15.75
2019-05-01T08:38:36.670Z,15.88
2019-05-01T08:39:39.603Z,15.60
2019-05-01T08:40:37.769Z,15.66
2019-05-01T08:41:37.736Z,15.57
2019-05-01T08:42:37.785Z,15.54
2019-05-01T08:43:36.651Z,15.57
2019-05-01T08:44:36.685Z,15.54
2019-05-01T08:45:40.610Z,15.64
2019-05-01T08:46:36.652Z,15.61
2019-05-01T08:47:36.652Z,15.46
2019-05-01T08:48:37.757Z,15.45
2019-05-01T08:49:36.685Z,15.48
2019-05-01T08:50:36.661Z,15.60
2019-05-01T08:51:36.658Z,15.85
2019-05-01T08:52:36.660Z,15.68
2019-05-01T08:53:36.668Z,15.43
2019-05-01T08:54:36.702Z,15.41
2019-05-01T08:55:39.837Z,15.36
2019-05-01T08:56:36.684Z,15.36
2019-05-01T08:57:39.300Z,15.24
2019-05-01T08:58:36.676Z,15.24
2019-05-01T08:59:36.711Z,15.20
2019-05-01T09:00:41.062Z,15.28
2019-05-01T09:01:36.696Z,15.03
2019-05-01T09:02:41.021Z,14.99
2019-05-01T09:03:36.698Z,15.17
2019-05-01T09:04:36.701Z,15.33
2019-05-01T09:05:36.730Z,15.46
2019-05-01T09:06:39.267Z,15.72
2019-05-01T09:07:36.744Z,15.72
2019-05-01T09:08:36.736Z,15.67
2019-05-01T09:09:39.729Z,15.57
2019-05-01T09:10:36.742Z,15.66
2019-05-01T09:11:37.428Z,15.96
2019-05-01T09:12:36.715Z,16.30
2019-05-01T09:13:36.727Z,16.38
2019-05-01T09:14:36.828Z,16.56
2019-05-01T09:15:36.770Z,16.63
2019-05-01T09:16:36.731Z,16.25
2019-05-01T09:17:36.737Z,16.35
2019-05-01T09:18:36.735Z,16.38
2019-05-01T09:19:36.735Z,16.45
2019-05-01T09:20:36.767Z,16.78
2019-05-01T09:21:37.770Z,17.30
2019-05-01T09:22:36.751Z,17.53
2019-05-01T09:23:36.761Z,17.54
2019-05-01T09:24:36.764Z,17.66
2019-05-01T09:25:36.897Z,17.81
2019-05-01T09:26:36.763Z,17.64
2019-05-01T09:27:36.764Z,17.62
2019-05-01T09:28:39.851Z,17.71
2019-05-01T09:29:36.780Z,17.84
2019-05-01T09:30:36.810Z,18.06
2019-05-01T09:31:36.786Z,18.25
2019-05-01T09:32:36.791Z,18.52
2019-05-01T09:33:36.804Z,18.44
2019-05-01T09:34:36.802Z,18.36
2019-05-01T09:35:40.312Z,18.28
2019-05-01T09:36:36.810Z,18.15
2019-05-01T09:37:36.820Z,18.28
2019-05-01T09:38:36.821Z,18.55
2019-05-01T09:39:36.821Z,18.50
2019-05-01T09:40:36.867Z,18.68
2019-05-01T09:41:38.275Z,18.90
2019-05-01T09:42:36.840Z,18.98
2019-05-01T09:43:37.051Z,19.13
2019-05-01T09:44:36.852Z,19.18
2019-05-01T09:45:36.856Z,18.91
2019-05-01T09:46:36.895Z,18.90
2019-05-01T09:47:36.865Z,19.08
2019-05-01T09:48:36.876Z,19.38
2019-05-01T09:49:36.877Z,19.46
2019-05-01T09:50:36.889Z,19.93
2019-05-01T09:51:36.923Z,20.24
2019-05-01T09:52:36.898Z,20.58
2019-05-01T09:53:36.917Z,20.53
2019-05-01T09:54:36.911Z,20.66
2019-05-01T09:55:36.921Z,20.50
2019-05-01T09:56:38.465Z,20.76
2019-05-01T09:57:41.380Z,20.90
2019-05-01T09:58:36.938Z,21.09
2019-05-01T09:59:36.953Z,21.11
2019-05-01T10:00:36.961Z,21.35
2019-05-01T10:01:36.998Z,21.53
2019-05-01T10:02:37.565Z,21.60
2019-05-01T10:03:36.984Z,21.13
2019-05-01T10:04:36.999Z,20.69
2019-05-01T10:05:38.002Z,20.58
2019-05-01T10:06:37.042Z,20.23
2019-05-01T10:07:37.026Z,20.23
2019-05-01T10:08:39.902Z,20.03
2019-05-01T10:09:37.047Z,20.06
2019-05-01T10:10:37.190Z,20.05
2019-05-01T10:11:40.639Z,20.02
2019-05-01T10:12:37.074Z,19.78
2019-05-01T10:13:37.080Z,19.70
2019-05-01T10:14:37.513Z,19.70
2019-05-01T10:15:37.101Z,19.69
2019-05-01T10:16:37.139Z,19.84
2019-05-01T10:17:37.111Z,20.08
2019-05-01T10:18:37.651Z,20.03
2019-05-01T10:19:37.124Z,19.90
2019-05-01T10:20:37.132Z,20.12
2019-05-01T10:21:37.176Z,20.38
2019-05-01T10:22:37.485Z,20.58
2019-05-01T10:23:37.159Z,20.54
2019-05-01T10:24:39.225Z,20.59
2019-05-01T10:25:37.172Z,20.16
2019-05-01T10:26:37.189Z,20.12
2019-05-01T10:27:37.425Z,19.72
2019-05-01T10:28:37.203Z,19.66
2019-05-01T10:29:37.209Z,19.65
2019-05-01T10:30:37.623Z,19.72
2019-05-01T10:31:37.227Z,19.88
2019-05-01T10:32:37.253Z,19.97
2019-05-01T10:33:37.233Z,19.86
2019-05-01T10:34:38.716Z,19.94
2019-05-01T10:35:42.842Z,20.49
2019-05-01T10:36:37.257Z,20.90
2019-05-01T10:37:37.293Z,21.35
2019-05-01T10:38:40.023Z,21.50
2019-05-01T10:39:37.278Z,21.69
2019-05-01T10:40:37.289Z,21.82
2019-05-01T10:41:41.255Z,22.16
2019-05-01T10:42:37.333Z,22.54
2019-05-01T10:43:37.314Z,22.65
2019-05-01T10:44:37.322Z,22.65
2019-05-01T10:45:37.338Z,22.92
2019-05-01T10:46:37.343Z,22.68
2019-05-01T10:47:37.379Z,22.43
2019-05-01T10:48:37.358Z,22.44
2019-05-01T10:49:37.374Z,22.65
2019-05-01T10:50:37.386Z,23.43
2019-05-01T10:51:37.395Z,23.65
2019-05-01T10:52:37.434Z,24.17
2019-05-01T10:53:37.421Z,24.13
2019-05-01T10:54:37.429Z,24.22
2019-05-01T10:55:37.442Z,24.50
2019-05-01T10:56:37.461Z,24.64
2019-05-01T10:57:40.539Z,24.64
2019-05-01T10:58:37.483Z,24.32
2019-05-01T10:59:37.495Z,24.08
2019-05-01T11:00:37.511Z,23.87
2019-05-01T11:01:37.527Z,24.13
2019-05-01T11:02:37.567Z,24.14
2019-05-01T11:03:37.555Z,24.38
2019-05-01T11:04:37.571Z,24.67
2019-05-01T11:05:37.580Z,24.90
2019-05-01T11:06:37.604Z,25.12
2019-05-01T11:07:37.636Z,25.28
2019-05-01T11:08:37.656Z,25.47
2019-05-01T11:09:37.640Z,25.20
2019-05-01T11:10:37.656Z,25.10
2019-05-01T11:11:37.673Z,24.57
2019-05-01T11:12:37.690Z,23.89
2019-05-01T11:13:37.724Z,23.57
2019-05-01T11:14:37.717Z,23.65
2019-05-01T11:15:37.737Z,23.79
2019-05-01T11:16:37.758Z,24.07
2019-05-01T11:17:37.761Z,24.20
2019-05-01T11:18:37.885Z,24.56
2019-05-01T11:19:37.814Z,24.71
2019-05-01T11:20:37.809Z,24.50
2019-05-01T11:21:37.822Z,24.32
2019-05-01T11:22:37.836Z,24.44
2019-05-01T11:23:37.881Z,24.69
2019-05-01T11:24:37.865Z,24.77
2019-05-01T11:25:37.882Z,24.73
2019-05-01T11:26:37.898Z,24.69
2019-05-01T11:27:37.922Z,24.68
2019-05-01T11:28:37.954Z,24.69
2019-05-01T11:29:37.939Z,24.20
2019-05-01T11:30:37.961Z,23.89
2019-05-01T11:31:37.971Z,24.19
2019-05-01T11:32:37.987Z,24.50
2019-05-01T11:33:38.035Z,24.79
2019-05-01T11:34:38.023Z,24.92
2019-05-01T11:35:38.035Z,24.97
2019-05-01T11:36:38.685Z,25.05
2019-05-01T11:37:38.066Z,25.25
2019-05-01T11:38:38.108Z,25.62
2019-05-01T11:39:40.712Z,25.74
2019-05-01T11:40:38.108Z,25.87
2019-05-01T11:41:38.128Z,25.80
2019-05-01T11:42:38.140Z,25.64
2019-05-01T11:43:38.182Z,25.27
2019-05-01T11:44:38.176Z,25.30
2019-05-01T11:45:38.189Z,25.30
2019-05-01T11:46:38.200Z,25.30
2019-05-01T11:47:38.221Z,25.32
2019-05-01T11:48:38.262Z,25.02
2019-05-01T11:49:38.253Z,25.10
2019-05-01T11:50:38.275Z,24.82
2019-05-01T11:51:38.281Z,24.54
2019-05-01T11:52:38.301Z,24.29
2019-05-01T11:53:38.346Z,24.38
2019-05-01T11:54:38.333Z,24.45
2019-05-01T11:55:38.347Z,24.39
2019-05-01T11:56:38.413Z,24.56
2019-05-01T11:57:38.375Z,24.87
2019-05-01T11:58:38.426Z,25.07
2019-05-01T11:59:38.412Z,25.27
2019-05-01T12:00:38.422Z,25.32
2019-05-01T12:01:38.444Z,25.34
2019-05-01T12:02:38.459Z,25.39
2019-05-01T12:03:38.502Z,25.09
2019-05-01T12:04:38.519Z,24.98
2019-05-01T12:05:38.503Z,24.61
2019-05-01T12:06:38.519Z,24.35
2019-05-01T12:07:38.535Z,24.20
2019-05-01T12:08:38.551Z,24.27
2019-05-01T12:09:38.596Z,24.35
2019-05-01T12:10:38.583Z,24.91
2019-05-01T12:11:38.599Z,25.25
2019-05-01T12:12:38.619Z,25.39
2019-05-01T12:13:43.918Z,25.35
2019-05-01T12:14:38.685Z,25.59
2019-05-01T12:15:38.667Z,25.54
2019-05-01T12:16:38.736Z,25.72
2019-05-01T12:17:38.997Z,25.37
2019-05-01T12:18:38.720Z,25.19
2019-05-01T12:19:38.757Z,25.05
2019-05-01T12:20:38.756Z,25.20
2019-05-01T12:21:38.770Z,25.20
2019-05-01T12:22:38.778Z,25.31
2019-05-01T12:23:38.797Z,25.34
2019-05-01T12:24:38.841Z,25.43
2019-05-01T12:25:38.833Z,25.52
2019-05-01T12:26:38.845Z,25.74
2019-05-01T12:27:38.861Z,24.98
2019-05-01T12:28:38.879Z,24.63
2019-05-01T12:29:38.933Z,24.61
2019-05-01T12:30:38.917Z,24.42
2019-05-01T12:31:38.934Z,24.50
2019-05-01T12:32:38.945Z,24.64
2019-05-01T12:33:38.965Z,24.76
2019-05-01T12:34:39.003Z,24.87
2019-05-01T12:35:39.007Z,25.25
2019-05-01T12:36:39.066Z,25.35
2019-05-01T12:37:39.027Z,25.17
2019-05-01T12:38:39.039Z,24.82
2019-05-01T12:39:39.099Z,24.54
2019-05-01T12:40:39.076Z,24.08
2019-05-01T12:41:39.092Z,24.13
2019-05-01T12:42:39.107Z,24.54
2019-05-01T12:43:39.121Z,24.87
2019-05-01T12:44:39.164Z,25.20
2019-05-01T12:45:39.150Z,25.34
2019-05-01T12:46:39.168Z,24.85
2019-05-01T12:47:39.184Z,24.41
2019-05-01T12:48:39.200Z,24.47
2019-05-01T12:49:39.248Z,24.29
2019-05-01T12:50:39.228Z,24.59
2019-05-01T12:51:39.246Z,24.16
2019-05-01T12:52:39.265Z,24.34
2019-05-01T12:53:39.274Z,24.71
2019-05-01T12:54:39.329Z,24.98
2019-05-01T12:55:39.337Z,24.97
2019-05-01T12:56:39.406Z,24.77
2019-05-01T12:57:39.342Z,24.88
2019-05-01T12:58:39.366Z,25.17
2019-05-01T12:59:39.372Z,25.27
2019-05-01T13:00:39.420Z,25.35
2019-05-01T13:01:39.408Z,25.28
2019-05-01T13:02:39.423Z,25.49
2019-05-01T13:03:39.439Z,25.31
2019-05-01T13:04:39.455Z,24.94